createdAt,value
2019-05-10T00:02:38.083Z,2.80
2019-05-10T00:07:35.823Z,2.60
2019-05-10T00:12:28.634Z,2.40
2019-05-10T00:17:20.301Z,3.10
2019-05-10T00:22:11.202Z,2.50
2019-05-10T00:27:02.088Z,2.27
2019-05-10T00:31:52.980Z,2.70
2019-05-10T00:36:43.887Z,2.37
2019-05-10T00:41:34.787Z,2.50
2019-05-10T00:46:25.748Z,2.85
2019-05-10T00:51:16.716Z,2.57
2019-05-10T00:56:07.630Z,2.87
2019-05-10T01:00:58.548Z,2.77
2019-05-10T01:05:50.196Z,2.60
2019-05-10T01:10:41.104Z,2.60
2019-05-10T01:15:32.768Z,2.63
2019-05-10T01:20:23.671Z,2.70
2019-05-10T01:25:14.576Z,2.53
2019-05-10T01:30:05.492Z,2.80
2019-05-10T01:34:57.147Z,3.20
2019-05-10T01:39:48.040Z,2.40
2019-05-10T01:44:39.691Z,2.77
2019-05-10T01:49:30.595Z,2.60
2019-05-10T01:54:22.248Z,3.10
2019-05-10T01:59:13.155Z,2.60
2019-05-10T02:04:04.795Z,2.53
2019-05-10T02:08:55.721Z,2.43
2019-05-10T02:13:46.695Z,2.90
2019-05-10T02:18:37.600Z,2.60
2019-05-10T02:23:28.507Z,2.10
2019-05-10T02:28:19.417Z,2.50
2019-05-10T02:33:10.329Z,2.47
2019-05-10T02:38:01.236Z,2.03
2019-05-10T02:42:52.135Z,2.90
2019-05-10T02:47:43.784Z,2.60
2019-05-10T02:52:34.700Z,2.12
2019-05-10T02:57:25.612Z,2.40
2019-05-10T03:02:16.515Z,2.37
2019-05-10T03:07:08.162Z,2.20
2019-05-10T03:12:10.175Z,2.07
2019-05-10T03:17:01.124Z,2.10
2019-05-10T03:21:52.026Z,2.23
2019-05-10T03:26:50.641Z,1.70
2019-05-10T03:31:34.651Z,1.80
2019-05-10T03:36:25.561Z,2.00
2019-05-10T03:41:17.209Z,1.63
2019-05-10T03:46:08.163Z,1.73
2019-05-10T03:50:59.327Z,2.17
2019-05-10T03:55:50.987Z,1.70
2019-05-10T04:00:41.888Z,1.77
2019-05-10T04:05:33.526Z,1.90
2019-05-10T04:10:25.178Z,1.87
2019-05-10T04:15:16.130Z,1.60
2019-05-10T04:20:07.026Z,1.50
2019-05-10T04:24:57.919Z,1.67
2019-05-10T04:29:49.628Z,1.60
2019-05-10T04:34:40.541Z,1.90
2019-05-10T04:39:31.618Z,1.60
2019-05-10T04:44:22.531Z,1.47
2019-05-10T04:49:13.435Z,1.40
2019-05-10T04:54:05.088Z,1.60
2019-05-10T04:58:56.000Z,1.57
2019-05-10T05:03:46.923Z,1.80
2019-05-10T05:08:37.860Z,1.70
2019-05-10T05:13:28.768Z,1.60
2019-05-10T05:18:19.673Z,1.87
2019-05-10T05:23:10.580Z,1.60
2019-05-10T05:28:08.120Z,1.60
2019-05-10T05:32:56.618Z,1.50
2019-05-10T05:37:44.085Z,1.80
2019-05-10T05:42:35.039Z,2.10
2019-05-10T05:47:25.953Z,1.40
2019-05-10T05:52:16.880Z,1.40
2019-05-10T05:57:09.266Z,1.60
2019-05-10T06:02:07.254Z,1.53
2019-05-10T06:06:53.801Z,2.10
2019-05-10T06:11:43.556Z,1.97
2019-05-10T06:16:35.246Z,2.00
2019-05-10T06:21:26.783Z,1.90
2019-05-10T06:26:26.388Z,1.73
2019-05-10T06:31:08.775Z,1.90
2019-05-10T06:35:59.687Z,2.30
2019-05-10T06:40:51.352Z,2.33
2019-05-10T06:45:46.554Z,2.10
2019-05-10T06:50:33.239Z,2.63
2019-05-10T06:55:24.160Z,5.10
2019-05-10T07:00:15.063Z,3.27
2019-05-10T07:05:05.976Z,2.83
2019-05-10T07:10:06.670Z,3.20
2019-05-10T07:14:47.920Z,3.70
2019-05-10T07:19:41.598Z,3.42
2019-05-10T07:24:29.833Z,2.80
2019-05-10T07:29:29.784Z,2.90
2019-05-10T07:34:15.603Z,3.90
2019-05-10T07:39:07.623Z,3.73
2019-05-10T07:43:53.498Z,4.30
2019-05-10T07:48:47.261Z,4.28
2019-05-10T07:53:35.317Z,4.70
2019-05-10T07:58:26.209Z,5.03
2019-05-10T08:03:23.094Z,4.70
2019-05-10T08:08:09.588Z,4.40
2019-05-10T08:13:03.062Z,4.80
2019-05-10T08:17:51.010Z,4.90
2019-05-10T08:22:45.941Z,7.40
2019-05-10T08:27:32.538Z,6.93
2019-05-10T08:32:25.525Z,6.50
2019-05-10T08:37:19.506Z,5.50
2019-05-10T08:42:27.454Z,5.20
2019-05-10T08:46:56.337Z,6.40
2019-05-10T08:51:49.305Z,8.05
2019-05-10T08:56:38.221Z,7.20
2019-05-10T09:01:30.626Z,6.00
2019-05-10T09:06:22.058Z,5.23
2019-05-10T09:11:11.760Z,4.60
2019-05-10T09:16:02.665Z,5.30
2019-05-10T09:21:00.482Z,6.30
2019-05-10T09:25:45.261Z,5.43
2019-05-10T09:30:36.163Z,5.80
2019-05-10T09:35:27.059Z,6.40
2019-05-10T09:40:18.700Z,6.60
2019-05-10T09:45:09.936Z,5.90
2019-05-10T09:50:02.267Z,5.60
2019-05-10T09:54:52.938Z,6.53
2019-05-10T09:59:43.849Z,6.20
2019-05-10T10:04:37.234Z,5.13
2019-05-10T10:09:33.832Z,5.37
2019-05-10T10:14:17.932Z,5.60
2019-05-10T10:19:08.223Z,4.83
2019-05-10T10:24:00.415Z,5.00
2019-05-10T10:28:55.309Z,4.57
2019-05-10T10:33:42.897Z,4.57
2019-05-10T10:38:37.107Z,3.90
2019-05-10T10:43:22.946Z,4.83
2019-05-10T10:48:14.588Z,4.20
2019-05-10T10:53:07.814Z,4.93
2019-05-10T10:57:57.707Z,4.60
2019-05-10T11:02:51.955Z,5.03
2019-05-10T11:07:41.584Z,4.23
2019-05-10T11:12:30.741Z,4.80
2019-05-10T11:17:20.180Z,4.80
2019-05-10T11:22:11.079Z,4.77
2019-05-10T11:27:01.990Z,4.50
2019-05-10T11:32:11.295Z,4.30
2019-05-10T11:36:45.954Z,3.53
2019-05-10T11:41:34.739Z,3.43
2019-05-10T11:46:27.990Z,2.80
2019-05-10T11:51:17.574Z,2.97
2019-05-10T11:56:07.788Z,4.10
2019-05-10T12:01:02.438Z,3.60
2019-05-10T12:10:42.509Z,2.83
2019-05-10T12:15:32.097Z,2.40
2019-05-10T12:20:38.950Z,2.20
2019-05-10T12:25:36.061Z,2.20
2019-05-10T12:26:18.296Z,2.63
2019-05-10T12:30:06.295Z,1.80
2019-05-10T12:34:57.252Z,1.90
2019-05-10T12:39:48.190Z,1.43
2019-05-10T12:44:43.903Z,2.20
2019-05-10T12:49:31.519Z,1.80
2019-05-10T12:54:23.897Z,1.70
2019-05-10T12:59:12.613Z,2.20
2019-05-10T13:04:13.965Z,1.77
2019-05-10T13:08:54.465Z,1.77
2019-05-10T13:13:45.482Z,2.00
2019-05-10T13:18:50.411Z,2.17
2019-05-10T13:23:27.312Z,2.10
2019-05-10T13:28:18.234Z,1.97
2019-05-10T13:33:09.133Z,2.40
2019-05-10T13:38:03.801Z,2.33
2019-05-10T13:42:51.715Z,2.57
2019-05-10T13:47:42.624Z,2.90
2019-05-10T13:52:37.601Z,2.70
2019-05-10T13:57:24.710Z,2.73
2019-05-10T14:02:15.605Z,3.03
2019-05-10T14:07:06.498Z,2.70
2019-05-10T14:11:57.403Z,3.23
2019-05-10T14:16:49.056Z,3.20
2019-05-10T14:21:39.988Z,3.70
2019-05-10T14:26:30.921Z,3.70
2019-05-10T14:31:21.845Z,3.00
2019-05-10T14:36:12.764Z,2.60
2019-05-10T14:41:10.307Z,2.50
2019-05-10T14:45:54.714Z,2.30
2019-05-10T14:50:46.692Z,2.30
2019-05-10T14:55:37.019Z,2.17
2019-05-10T15:00:28.236Z,2.10
2019-05-10T15:05:19.877Z,2.00
2019-05-10T15:10:10.777Z,1.70
2019-05-10T15:15:02.413Z,2.30
2019-05-10T15:19:59.944Z,1.70
2019-05-10T15:24:45.115Z,2.43
2019-05-10T15:29:36.035Z,1.50
2019-05-10T15:34:26.935Z,1.30
2019-05-10T15:39:17.839Z,1.30
2019-05-10T15:44:08.751Z,1.20
2019-05-10T15:49:00.409Z,1.20
2019-05-10T15:53:51.347Z,1.10
2019-05-10T15:58:42.780Z,1.30
2019-05-10T16:03:33.200Z,0.90
2019-05-10T16:08:30.463Z,0.90
2019-05-10T16:13:23.206Z,0.80
2019-05-10T16:18:06.730Z,0.90
2019-05-10T16:23:02.675Z,1.10
2019-05-10T16:27:49.292Z,1.00
2019-05-10T16:32:40.198Z,1.00
2019-05-10T16:37:31.123Z,1.00
2019-05-10T16:42:22.085Z,0.80
2019-05-10T16:47:13.000Z,0.90
2019-05-10T16:52:04.648Z,0.90
2019-05-10T16:56:59.396Z,1.00
2019-05-10T17:01:46.496Z,0.80
2019-05-10T17:06:40.490Z,0.83
2019-05-10T17:11:28.347Z,1.07
2019-05-10T17:16:19.251Z,1.27
2019-05-10T17:21:10.156Z,0.90
2019-05-10T17:26:01.062Z,1.13
2019-05-10T17:30:51.962Z,1.00
2019-05-10T17:35:44.157Z,0.87
2019-05-10T17:40:34.587Z,1.10
2019-05-10T17:45:26.234Z,1.13
2019-05-10T17:50:17.142Z,1.10
2019-05-10T17:55:10.782Z,0.93
2019-05-10T17:59:59.731Z,1.30
2019-05-10T18:04:50.637Z,1.10
2019-05-10T18:09:41.534Z,1.00
2019-05-10T18:14:33.215Z,1.27
2019-05-10T18:19:24.996Z,1.00
2019-05-10T18:24:15.032Z,1.10
2019-05-10T18:29:05.956Z,1.03
2019-05-10T18:33:56.872Z,1.20
2019-05-10T18:38:47.770Z,0.90
2019-05-10T18:43:40.607Z,1.10
2019-05-10T18:48:30.325Z,1.00
2019-05-10T18:53:21.240Z,0.97
2019-05-10T18:58:12.880Z,1.10
2019-05-10T19:03:03.779Z,1.20
2019-05-10T19:08:03.146Z,1.40
2019-05-10T19:12:46.789Z,1.03
2019-05-10T19:17:40.613Z,1.40
2019-05-10T19:22:28.389Z,1.07
2019-05-10T19:27:20.098Z,1.20
2019-05-10T19:32:17.315Z,1.33
2019-05-10T19:37:02.080Z,1.27
2019-05-10T19:42:03.081Z,1.27
2019-05-10T19:46:43.939Z,1.47
2019-05-10T19:51:34.843Z,1.50
2019-05-10T19:56:30.067Z,1.17
2019-05-10T20:01:16.653Z,1.40
2019-05-10T20:06:08.304Z,1.23
2019-05-10T20:10:59.215Z,1.50
2019-05-10T20:15:50.925Z,1.50
2019-05-10T20:20:41.863Z,1.10
2019-05-10T20:25:33.511Z,1.40
2019-05-10T20:30:24.442Z,1.63
2019-05-10T20:35:15.347Z,1.55
2019-05-10T20:40:06.251Z,1.40
2019-05-10T20:45:06.796Z,2.50
2019-05-10T20:49:48.820Z,1.90
2019-05-10T20:54:40.481Z,2.03
2019-05-10T20:59:31.395Z,1.57
2019-05-10T21:04:22.298Z,1.87
2019-05-10T21:09:13.270Z,1.90
2019-05-10T21:14:04.199Z,1.85
2019-05-10T21:18:55.106Z,1.60
2019-05-10T21:23:46.010Z,1.57
2019-05-10T21:28:36.927Z,1.43
2019-05-10T21:33:27.838Z,1.43
2019-05-10T21:38:31.870Z,1.77
2019-05-10T21:43:09.669Z,2.10
2019-05-10T21:48:00.579Z,1.80
2019-05-10T21:52:51.496Z,1.57
2019-05-10T21:57:42.408Z,1.80
2019-05-10T22:02:33.321Z,1.90
2019-05-10T22:07:24.307Z,1.50
2019-05-10T22:12:15.198Z,1.80
2019-05-10T22:17:06.847Z,2.15
2019-05-10T22:21:57.756Z,1.80
2019-05-10T22:26:48.666Z,2.00
2019-05-10T22:31:39.564Z,1.90
2019-05-10T22:36:30.470Z,1.93
2019-05-10T22:41:21.384Z,1.80
2019-05-10T22:46:13.039Z,2.00
2019-05-10T22:51:03.954Z,2.20
2019-05-10T22:55:54.869Z,1.80
2019-05-10T23:00:45.771Z,1.70
2019-05-10T23:05:37.409Z,1.60
2019-05-10T23:10:28.319Z,2.03
2019-05-10T23:15:19.967Z,1.80
2019-05-10T23:20:11.601Z,1.60
2019-05-10T23:25:04.261Z,1.70
2019-05-10T23:29:55.909Z,1.62
2019-05-10T23:34:46.883Z,1.60
2019-05-10T23:39:41.166Z,1.77
2019-05-10T23:44:28.789Z,1.60
2019-05-10T23:49:19.694Z,2.10
2019-05-10T23:54:10.598Z,2.07
2019-05-10T23:59:01.515Z,1.90
